Time;durP1;ratioP1;P1;durP2;ratioP2;P2;SDS_P1;SDS_P2;PMS_P1;PMS_P2;Temp;Humidity;BMP_temperature;BMP_pressure;BME280_temperature;BME280_humidity;BME280_pressure;Samples;Min_cycle;Max_cycle;Signal;HPM_P1;HPM_P2
2022/08/04 00:01:52;;;;;;;4.57;2.10;;;19.90;99.90;;;;;;5033729;28;20202;-79
2022/08/04 00:04:31;;;;;;;2.47;1.20;;;19.90;99.90;;;;;;5026461;28;20201;-76
2022/08/04 00:07:17;;;;;;;2.28;1.00;;;19.90;99.90;;;;;;5031861;28;20206;-78
2022/08/04 00:09:54;;;;;;;3.00;1.38;;;19.90;99.90;;;;;;5033268;28;20256;-72
2022/08/04 00:12:26;;;;;;;3.67;1.27;;;19.90;99.90;;;;;;5035597;28;20197;-77
2022/08/04 00:15:01;;;;;;;4.72;1.20;;;20.00;99.90;;;;;;5031361;28;20207;-73
2022/08/04 00:17:37;;;;;;;5.60;1.35;;;20.10;99.90;;;;;;5016031;28;20230;-74
2022/08/04 00:20:10;;;;;;;3.20;1.40;;;20.00;99.90;;;;;;5029402;28;20201;-73
2022/08/04 00:22:45;;;;;;;4.18;1.58;;;20.00;99.90;;;;;;5035861;28;20194;-72
2022/08/04 00:25:16;;;;;;;3.30;1.23;;;20.10;99.90;;;;;;5034579;28;20194;-76
2022/08/04 00:27:47;;;;;;;3.80;1.20;;;20.10;99.90;;;;;;5034667;28;20587;-81
2022/08/04 00:30:20;;;;;;;1.92;1.10;;;20.20;99.90;;;;;;5032406;28;21189;-79
2022/08/04 00:32:50;;;;;;;3.72;1.25;;;20.20;99.90;;;;;;5032356;28;20187;-81
2022/08/04 00:35:21;;;;;;;3.65;1.20;;;20.20;99.90;;;;;;5034460;28;20222;-76
2022/08/04 00:37:52;;;;;;;2.83;1.13;;;20.30;99.90;;;;;;5045735;28;20245;-75
2022/08/04 00:40:32;;;;;;;2.60;1.20;;;20.30;99.90;;;;;;5055210;28;20198;-75
2022/08/04 00:43:15;;;;;;;2.47;1.10;;;20.30;99.90;;;;;;5055377;28;20190;-77
2022/08/04 00:46:10;;;;;;;3.25;1.27;;;20.30;99.90;;;;;;5055308;28;20196;-78
2022/08/04 00:49:12;;;;;;;2.70;1.33;;;20.20;99.90;;;;;;5052974;28;20206;-78
2022/08/04 00:51:51;;;;;;;3.25;1.20;;;20.20;99.90;;;;;;5014453;28;20202;-79
2022/08/04 00:54:43;;;;;;;4.70;1.50;;;20.20;99.90;;;;;;5033567;28;20213;-79
2022/08/04 00:57:32;;;;;;;1.80;1.20;;;20.20;99.90;;;;;;5032580;28;20217;-79
2022/08/04 01:00:11;;;;;;;3.42;1.33;;;20.20;99.90;;;;;;5032980;28;20230;-79
2022/08/04 01:03:09;;;;;;;2.47;1.30;;;20.20;99.90;;;;;;5033087;28;20202;-78
2022/08/04 01:05:53;;;;;;;3.88;1.30;;;20.20;99.90;;;;;;5028553;28;20208;-78
2022/08/04 01:08:49;;;;;;;5.03;1.77;;;20.20;99.90;;;;;;5032231;28;20234;-79
2022/08/04 01:11:30;;;;;;;5.03;1.20;;;20.30;99.90;;;;;;5027132;28;20194;-76
2022/08/04 01:14:19;;;;;;;2.33;1.30;;;20.20;99.90;;;;;;5026681;28;20198;-75
2022/08/04 01:16:53;;;;;;;4.55;1.30;;;20.30;99.90;;;;;;5030442;28;20222;-73
2022/08/04 01:20:00;;;;;;;2.50;1.30;;;20.40;99.90;;;;;;5031404;28;20193;-72
2022/08/04 01:23:09;;;;;;;6.45;1.30;;;20.40;99.90;;;;;;5024374;28;20202;-73
2022/08/04 01:26:27;;;;;;;4.05;1.50;;;20.30;99.90;;;;;;5027111;28;20281;-73
2022/08/04 01:29:14;;;;;;;3.60;1.20;;;20.30;99.90;;;;;;5001889;28;20203;-72
2022/08/04 01:31:56;;;;;;;1.52;1.10;;;20.30;99.90;;;;;;5032713;28;20206;-73
2022/08/04 01:34:29;;;;;;;3.45;1.00;;;20.30;99.90;;;;;;5028133;28;20225;-74
2022/08/04 01:37:09;;;;;;;3.10;1.23;;;20.30;99.90;;;;;;5033443;28;20209;-75
2022/08/04 01:39:51;;;;;;;1.33;1.00;;;20.30;99.90;;;;;;5033630;28;20688;-74
2022/08/04 01:42:23;;;;;;;2.92;1.30;;;20.20;99.90;;;;;;5033520;28;20194;-74
2022/08/04 01:44:57;;;;;;;2.08;1.00;;;20.30;99.90;;;;;;5036903;28;20200;-72
2022/08/04 01:47:32;;;;;;;4.93;1.30;;;20.30;99.90;;;;;;5035256;28;20249;-75
2022/08/04 01:50:08;;;;;;;2.05;1.13;;;20.30;99.90;;;;;;5034301;28;20205;-77
2022/08/04 01:52:40;;;;;;;3.05;1.15;;;20.40;99.90;;;;;;5017611;28;20201;-74
2022/08/04 01:55:12;;;;;;;1.60;1.20;;;20.40;99.90;;;;;;5031348;28;20209;-74
2022/08/04 01:57:46;;;;;;;3.35;1.10;;;20.30;99.90;;;;;;5032123;28;20242;-73
2022/08/04 02:00:20;;;;;;;3.00;1.05;;;20.30;99.90;;;;;;5032653;28;20201;-74
2022/08/04 02:02:52;;;;;;;2.00;0.90;;;20.40;99.90;;;;;;5030472;28;20198;-73
2022/08/04 02:05:25;;;;;;;3.50;1.80;;;20.40;99.90;;;;;;5033643;28;20248;-73
2022/08/04 02:08:12;;;;;;;3.10;1.33;;;20.50;99.90;;;;;;5030561;28;20230;-73
2022/08/04 02:10:57;;;;;;;2.65;1.13;;;20.50;99.90;;;;;;5031540;28;20206;-73
2022/08/04 02:13:34;;;;;;;2.13;1.10;;;20.50;99.90;;;;;;5027520;28;20198;-73
2022/08/04 02:16:11;;;;;;;3.40;0.90;;;20.50;99.90;;;;;;5031464;28;20198;-73
2022/08/04 02:18:46;;;;;;;1.30;0.90;;;20.50;99.90;;;;;;5033040;28;20568;-74
2022/08/04 02:21:21;;;;;;;0.95;0.80;;;20.50;99.90;;;;;;5027414;28;20589;-74
2022/08/04 02:23:56;;;;;;;2.55;1.65;;;20.50;99.90;;;;;;5029791;28;20208;-74
2022/08/04 02:26:30;;;;;;;2.00;1.00;;;20.60;99.90;;;;;;5038732;28;20220;-74
2022/08/04 02:29:08;;;;;;;2.78;0.90;;;20.50;99.90;;;;;;5032449;28;20208;-73
2022/08/04 02:31:48;;;;;;;2.72;1.08;;;20.50;99.90;;;;;;5033396;28;20190;-73
2022/08/04 02:34:26;;;;;;;1.95;1.10;;;20.40;99.90;;;;;;5031014;28;20237;-76
2022/08/04 02:36:57;;;;;;;1.92;1.05;;;20.50;99.90;;;;;;5027972;28;20221;-73
2022/08/04 02:39:33;;;;;;;1.70;0.80;;;20.40;99.90;;;;;;5031905;28;20234;-74
2022/08/04 02:42:05;;;;;;;1.73;0.60;;;20.40;99.90;;;;;;5032036;28;20190;-73
2022/08/04 02:44:39;;;;;;;2.30;0.95;;;20.30;99.90;;;;;;5030006;28;20194;-74
2022/08/04 02:47:13;;;;;;;1.85;0.70;;;20.30;99.90;;;;;;5030976;28;20573;-74
2022/08/04 02:49:47;;;;;;;1.25;0.60;;;20.30;99.90;;;;;;5029590;28;20198;-75
2022/08/04 02:52:18;;;;;;;0.82;0.65;;;20.30;99.90;;;;;;5030883;28;20198;-73
2022/08/04 02:54:52;;;;;;;1.33;0.80;;;20.30;99.90;;;;;;5031271;28;20202;-72
2022/08/04 02:57:26;;;;;;;1.23;0.70;;;20.30;99.90;;;;;;5021362;28;20217;-73
2022/08/04 03:00:09;;;;;;;1.73;0.80;;;20.30;99.90;;;;;;5027526;28;20202;-73
2022/08/04 03:02:52;;;;;;;1.50;0.90;;;20.30;99.90;;;;;;5032980;28;20248;-73
2022/08/04 03:05:27;;;;;;;1.10;0.80;;;20.30;99.90;;;;;;5029586;28;20672;-73
2022/08/04 03:08:26;;;;;;;1.42;1.02;;;20.30;99.90;;;;;;5031209;28;20668;-72
2022/08/04 03:11:30;;;;;;;3.47;1.17;;;20.30;99.90;;;;;;5031021;28;20284;-75
2022/08/04 03:14:29;;;;;;;2.17;0.90;;;20.30;99.90;;;;;;5029823;28;20203;-71
2022/08/04 03:17:44;;;;;;;3.08;0.98;;;20.30;99.90;;;;;;5030025;28;20214;-72
2022/08/04 03:20:56;;;;;;;5.55;1.08;;;20.30;99.90;;;;;;4958334;28;20212;-74
2022/08/04 03:24:01;;;;;;;2.63;0.95;;;20.30;99.90;;;;;;4965642;28;20239;-72
2022/08/04 03:27:00;;;;;;;3.78;1.40;;;20.30;99.90;;;;;;5018991;28;20237;-73
2022/08/04 03:30:05;;;;;;;2.67;1.15;;;20.30;99.90;;;;;;5021222;28;20693;-72
2022/08/04 03:33:09;;;;;;;1.63;1.00;;;20.30;99.90;;;;;;5028982;28;20277;-72
2022/08/04 03:36:08;;;;;;;2.90;1.20;;;20.30;99.90;;;;;;5029148;28;20252;-74
2022/08/04 03:39:10;;;;;;;2.28;1.20;;;20.30;99.90;;;;;;5031061;28;20230;-73
2022/08/04 03:42:03;;;;;;;4.63;1.33;;;20.20;99.90;;;;;;5029626;28;20190;-73
2022/08/04 03:45:20;;;;;;;3.78;1.40;;;20.20;99.90;;;;;;5030249;28;20202;-77
2022/08/04 03:48:11;;;;;;;1.75;1.00;;;20.20;99.90;;;;;;5020486;28;20676;-72
2022/08/04 03:54:11;;;;;;;18.35;8.80;;;20.20;99.90;;;;;;5032128;28;20196;-72
2022/08/04 03:57:07;;;;;;;3.17;1.52;;;20.20;99.90;;;;;;5031301;28;20260;-78
2022/08/04 03:59:59;;;;;;;3.20;1.27;;;20.30;99.90;;;;;;5009066;28;20199;-72
2022/08/04 04:02:58;;;;;;;5.57;1.98;;;20.30;99.90;;;;;;5012338;28;20205;-73
2022/08/04 04:06:09;;;;;;;3.28;1.40;;;20.30;99.90;;;;;;5030332;28;20190;-72
2022/08/04 04:09:19;;;;;;;3.78;1.50;;;20.30;99.90;;;;;;5030965;28;20638;-73
2022/08/04 04:12:19;;;;;;;4.18;1.88;;;20.30;99.90;;;;;;5031740;28;20642;-72
2022/08/04 04:15:04;;;;;;;6.95;1.83;;;20.20;99.90;;;;;;5016072;28;20195;-73
2022/08/04 04:18:25;;;;;;;5.25;1.50;;;20.20;99.90;;;;;;5031297;28;20223;-74
2022/08/04 04:21:21;;;;;;;2.17;1.20;;;20.30;99.90;;;;;;5004448;28;20202;-73
2022/08/04 04:24:30;;;;;;;3.90;1.27;;;20.30;99.90;;;;;;5031518;28;20190;-75
2022/08/04 04:27:10;;;;;;;1.85;1.33;;;20.40;99.90;;;;;;5026175;28;20190;-76
2022/08/04 04:30:06;;;;;;;2.08;1.33;;;20.50;99.90;;;;;;5031099;28;20186;-75
2022/08/04 04:32:55;;;;;;;4.20;1.20;;;20.60;99.90;;;;;;5022843;28;20194;-75
2022/08/04 04:35:39;;;;;;;3.08;1.35;;;20.60;99.90;;;;;;5028137;28;20245;-76
2022/08/04 04:38:31;;;;;;;3.20;1.50;;;20.60;99.90;;;;;;5029900;28;20701;-74
2022/08/04 04:41:33;;;;;;;4.65;1.45;;;20.60;99.90;;;;;;5031874;28;20194;-75
2022/08/04 04:44:29;;;;;;;1.55;1.02;;;20.60;99.90;;;;;;5030992;28;20661;-75
2022/08/04 04:47:08;;;;;;;1.40;1.17;;;20.70;99.90;;;;;;5033159;28;20194;-75
2022/08/04 04:49:50;;;;;;;2.85;1.33;;;20.70;99.90;;;;;;5034654;28;20193;-74
2022/08/04 04:52:29;;;;;;;3.40;1.15;;;20.70;99.90;;;;;;5032289;28;20217;-75
2022/08/04 04:55:11;;;;;;;2.58;1.20;;;20.60;99.90;;;;;;5035036;28;20209;-74
2022/08/04 04:57:45;;;;;;;2.45;1.23;;;20.60;99.90;;;;;;5035155;28;20210;-74
2022/08/04 05:00:16;;;;;;;3.00;1.40;;;20.60;99.90;;;;;;5034911;28;20186;-75
2022/08/04 05:03:32;;;;;;;1.58;1.10;;;20.60;99.90;;;;;;5034174;28;20194;-74
2022/08/04 05:06:16;;;;;;;4.13;1.20;;;20.60;99.90;;;;;;4969648;28;20201;-74
2022/08/04 05:09:05;;;;;;;4.07;1.45;;;20.70;99.90;;;;;;5022401;28;20206;-75
2022/08/04 05:12:03;;;;;;;1.45;0.98;;;20.70;99.90;;;;;;5023209;28;20248;-76
2022/08/04 05:14:42;;;;;;;3.28;1.00;;;20.70;99.90;;;;;;5019690;28;20202;-76
2022/08/04 05:17:22;;;;;;;2.33;1.02;;;20.60;99.90;;;;;;5033564;28;20193;-74
2022/08/04 05:20:01;;;;;;;15.60;3.83;;;20.50;99.90;;;;;;5034606;28;20621;-74
2022/08/04 05:22:36;;;;;;;8.13;1.90;;;20.50;99.90;;;;;;5034540;28;20225;-74
2022/08/04 05:25:13;;;;;;;2.33;1.10;;;20.50;99.90;;;;;;5014911;28;20190;-76
2022/08/04 05:27:47;;;;;;;9.55;2.67;;;20.50;99.90;;;;;;5014911;28;20209;-75
2022/08/04 05:30:21;;;;;;;3.50;1.30;;;20.40;99.90;;;;;;5014892;28;20226;-76
2022/08/04 05:32:58;;;;;;;1.88;1.17;;;20.40;99.90;;;;;;5014885;28;20735;-80
2022/08/04 05:35:35;;;;;;;1.77;1.10;;;20.40;99.90;;;;;;5028665;28;20225;-80
2022/08/04 05:38:07;;;;;;;2.38;1.15;;;20.40;99.90;;;;;;5033697;28;20601;-81
2022/08/04 05:40:39;;;;;;;2.35;1.05;;;20.30;99.90;;;;;;5034476;28;20669;-83
2022/08/04 05:43:11;;;;;;;1.60;0.90;;;20.30;99.90;;;;;;5034442;28;20198;-80
2022/08/04 05:45:47;;;;;;;3.08;1.15;;;20.30;99.90;;;;;;5034522;28;20191;-82
2022/08/04 05:48:18;;;;;;;2.83;1.30;;;20.30;99.90;;;;;;5034248;28;20248;-81
2022/08/04 05:50:49;;;;;;;4.63;1.42;;;20.20;99.90;;;;;;5034207;28;20187;-80
2022/08/04 05:53:21;;;;;;;3.95;1.10;;;20.10;99.90;;;;;;5034342;28;20233;-81
2022/08/04 05:55:52;;;;;;;4.22;1.25;;;20.00;99.90;;;;;;5034121;28;20209;-84
2022/08/04 05:58:24;;;;;;;5.05;1.30;;;20.10;99.90;;;;;;5034048;28;20577;-80
2022/08/04 06:00:58;;;;;;;4.22;1.30;;;20.00;99.90;;;;;;5033767;28;20272;-80
2022/08/04 06:03:30;;;;;;;1.88;1.27;;;19.90;99.90;;;;;;5033887;28;20189;-81
2022/08/04 06:06:01;;;;;;;3.47;1.20;;;19.80;99.90;;;;;;5033914;28;20194;-81
2022/08/04 06:08:33;;;;;;;3.60;1.23;;;19.70;99.90;;;;;;5029349;28;20214;-82
2022/08/04 06:11:08;;;;;;;3.05;1.40;;;19.70;99.90;;;;;;5029918;28;20202;-83
2022/08/04 06:13:44;;;;;;;3.35;1.52;;;19.60;99.90;;;;;;5031825;28;20190;-81
2022/08/04 06:16:18;;;;;;;2.88;1.20;;;19.60;99.90;;;;;;5031845;28;20202;-81
2022/08/04 06:18:53;;;;;;;3.78;1.42;;;19.50;99.90;;;;;;5033550;28;20229;-79
2022/08/04 06:21:28;;;;;;;2.20;1.20;;;19.50;99.90;;;;;;5032163;28;20198;-82
2022/08/04 06:24:00;;;;;;;2.40;1.40;;;19.50;99.90;;;;;;5031359;28;20210;-82
2022/08/04 06:26:34;;;;;;;2.72;1.55;;;19.60;99.90;;;;;;5028559;28;20190;-83
2022/08/04 06:29:09;;;;;;;4.57;1.70;;;19.60;99.90;;;;;;5026716;28;20251;-81
2022/08/04 06:31:56;;;;;;;3.13;1.60;;;19.70;99.90;;;;;;5027604;28;20256;-75
2022/08/04 06:34:29;;;;;;;3.35;1.50;;;19.60;99.90;;;;;;5027248;28;20699;-76
2022/08/04 06:37:03;;;;;;;2.08;1.40;;;19.70;99.90;;;;;;5033069;28;20642;-75
2022/08/04 06:39:35;;;;;;;2.50;1.50;;;19.70;99.90;;;;;;5026645;28;20243;-78
2022/08/04 06:42:06;;;;;;;3.00;1.50;;;19.70;99.90;;;;;;5032245;28;20198;-75
2022/08/04 06:44:38;;;;;;;3.85;1.60;;;19.70;99.90;;;;;;5031367;28;20213;-73
2022/08/04 06:47:17;;;;;;;3.17;1.60;;;19.60;99.90;;;;;;5031953;28;20206;-76
2022/08/04 06:49:49;;;;;;;4.80;1.70;;;19.70;99.90;;;;;;5031222;28;20205;-73
2022/08/04 06:52:21;;;;;;;4.15;1.67;;;19.70;99.90;;;;;;5032194;28;20221;-74
2022/08/04 06:54:54;;;;;;;3.83;1.58;;;19.70;99.90;;;;;;5014542;28;20195;-76
2022/08/04 06:57:28;;;;;;;2.15;1.70;;;19.80;99.90;;;;;;5028792;28;20202;-75
2022/08/04 07:00:02;;;;;;;2.75;1.50;;;19.80;99.90;;;;;;5026702;28;20661;-76
2022/08/04 07:02:40;;;;;;;2.55;1.58;;;19.80;99.90;;;;;;5029723;28;20286;-74
2022/08/04 07:05:12;;;;;;;2.92;1.20;;;19.80;99.90;;;;;;5032504;28;20190;-75
2022/08/04 07:07:43;;;;;;;2.55;1.52;;;19.70;99.90;;;;;;5030978;28;20653;-79
2022/08/04 07:10:14;;;;;;;2.28;1.60;;;19.80;99.90;;;;;;5030368;28;20207;-76
2022/08/04 07:12:45;;;;;;;2.88;1.50;;;19.70;99.90;;;;;;5031993;28;20209;-79
2022/08/04 07:15:18;;;;;;;3.22;1.70;;;19.70;99.90;;;;;;5029925;28;20201;-79
2022/08/04 07:17:52;;;;;;;2.78;1.60;;;19.70;99.90;;;;;;5030660;28;20205;-78
2022/08/04 07:20:23;;;;;;;2.45;1.73;;;19.60;99.90;;;;;;5032818;28;20186;-80
2022/08/04 07:22:54;;;;;;;3.10;1.70;;;19.50;99.90;;;;;;5032326;28;20187;-80
2022/08/04 07:25:25;;;;;;;1.95;1.42;;;19.40;99.90;;;;;;5032473;28;20195;-81
2022/08/04 07:27:56;;;;;;;1.92;1.67;;;19.30;99.90;;;;;;5032012;28;20194;-78
2022/08/04 07:30:30;;;;;;;2.92;1.85;;;19.20;99.90;;;;;;5032388;28;20205;-79
2022/08/04 07:33:04;;;;;;;2.97;1.80;;;19.10;99.90;;;;;;5031630;28;20696;-81
2022/08/04 07:35:35;;;;;;;2.85;1.52;;;19.00;99.90;;;;;;5031653;28;20199;-81
2022/08/04 07:38:06;;;;;;;3.05;2.00;;;19.00;99.90;;;;;;5032297;28;20233;-79
2022/08/04 07:40:39;;;;;;;3.38;2.08;;;18.90;99.90;;;;;;5032304;28;20230;-79
2022/08/04 07:43:10;;;;;;;2.92;1.80;;;18.80;99.90;;;;;;5032498;28;20190;-81
2022/08/04 07:45:41;;;;;;;2.30;1.70;;;18.70;99.90;;;;;;5032229;28;20194;-83
2022/08/04 07:48:17;;;;;;;4.05;2.00;;;18.70;99.90;;;;;;5032301;28;20197;-83
2022/08/04 07:50:48;;;;;;;4.95;2.00;;;18.70;99.90;;;;;;5029737;28;20206;-81
2022/08/04 07:53:19;;;;;;;3.22;1.80;;;18.60;99.90;;;;;;5032178;28;20194;-78
2022/08/04 07:55:51;;;;;;;2.22;2.00;;;18.60;99.90;;;;;;5031044;28;20186;-77
2022/08/04 07:58:21;;;;;;;3.13;1.58;;;18.60;99.90;;;;;;5031973;28;20214;-77
2022/08/04 08:00:53;;;;;;;5.53;2.03;;;18.60;99.90;;;;;;5031473;28;20203;-77
2022/08/04 08:03:27;;;;;;;2.25;1.60;;;18.60;99.90;;;;;;5025332;28;20216;-77
2022/08/04 08:05:59;;;;;;;3.63;1.58;;;18.60;99.90;;;;;;5028844;28;20201;-76
2022/08/04 08:08:29;;;;;;;4.45;1.92;;;18.50;99.90;;;;;;5031927;28;20195;-76
2022/08/04 08:11:00;;;;;;;2.55;1.70;;;18.50;99.90;;;;;;5032255;28;20218;-76
2022/08/04 08:13:32;;;;;;;2.85;1.90;;;18.40;99.90;;;;;;5031669;28;20201;-77
2022/08/04 08:16:03;;;;;;;3.10;1.88;;;18.30;99.90;;;;;;5033944;28;20205;-76
2022/08/04 08:18:35;;;;;;;5.50;1.80;;;18.20;99.90;;;;;;5035847;28;20222;-76
2022/08/04 08:21:07;;;;;;;2.90;1.90;;;18.10;99.90;;;;;;5035654;28;20201;-80
2022/08/04 08:23:38;;;;;;;3.15;1.80;;;18.10;99.90;;;;;;5035715;28;20201;-76
2022/08/04 08:26:09;;;;;;;5.72;2.10;;;18.00;99.90;;;;;;5025516;28;20203;-76
2022/08/04 08:28:40;;;;;;;5.57;2.25;;;18.00;99.90;;;;;;5034622;28;20198;-78
2022/08/04 08:31:11;;;;;;;3.85;2.00;;;17.90;99.90;;;;;;5025086;28;20684;-79
2022/08/04 08:33:44;;;;;;;5.05;2.28;;;17.90;99.90;;;;;;5033385;28;20222;-75
2022/08/04 08:36:22;;;;;;;5.68;2.33;;;17.90;99.90;;;;;;5034508;28;20194;-76
2022/08/04 08:39:01;;;;;;;3.13;1.90;;;17.80;99.90;;;;;;5035000;28;20230;-78
2022/08/04 08:42:16;;;;;;;3.63;1.90;;;17.80;99.90;;;;;;5035535;28;20221;-76
2022/08/04 08:45:17;;;;;;;3.97;2.20;;;17.70;99.90;;;;;;5018370;28;20248;-75
2022/08/04 08:48:01;;;;;;;4.43;2.10;;;17.60;99.90;;;;;;5035213;28;20565;-76
2022/08/04 08:50:49;;;;;;;2.63;1.90;;;17.60;99.90;;;;;;5034910;28;20201;-76
2022/08/04 08:53:51;;;;;;;4.88;2.05;;;17.50;99.90;;;;;;5034737;28;20260;-74
2022/08/04 08:56:34;;;;;;;1.80;1.65;;;17.50;99.90;;;;;;5034037;28;20194;-77
2022/08/04 08:59:27;;;;;;;2.78;1.80;;;17.50;99.90;;;;;;5035042;28;20307;-75
2022/08/04 09:02:21;;;;;;;2.60;1.50;;;17.50;99.90;;;;;;5034477;28;20191;-76
2022/08/04 09:05:09;;;;;;;1.85;1.40;;;17.40;99.90;;;;;;5035031;28;20565;-77
2022/08/04 09:08:07;;;;;;;2.75;1.80;;;17.40;99.90;;;;;;5035512;28;20206;-79
2022/08/04 09:10:45;;;;;;;2.33;1.33;;;17.40;99.90;;;;;;5028201;28;20198;-80
2022/08/04 09:13:25;;;;;;;3.78;1.38;;;17.40;99.90;;;;;;5034739;28;20202;-76
2022/08/04 09:16:03;;;;;;;3.08;1.50;;;17.30;99.90;;;;;;5024697;28;20218;-74
2022/08/04 09:18:43;;;;;;;4.13;1.60;;;17.30;99.90;;;;;;5030921;28;20210;-80
2022/08/04 09:21:20;;;;;;;1.40;1.08;;;17.30;99.90;;;;;;5015078;28;20191;-76
2022/08/04 09:24:03;;;;;;;1.42;1.13;;;17.30;99.90;;;;;;5018363;28;20198;-78
2022/08/04 09:26:41;;;;;;;1.08;0.98;;;17.30;99.90;;;;;;5034445;28;20190;-77
2022/08/04 09:29:23;;;;;;;1.50;1.17;;;17.30;99.90;;;;;;5033607;28;20557;-79
2022/08/04 09:32:06;;;;;;;2.05;1.00;;;17.30;99.90;;;;;;5033946;28;20187;-77
2022/08/04 09:34:49;;;;;;;1.48;1.00;;;17.30;99.90;;;;;;5021286;28;21023;-74
2022/08/04 09:37:31;;;;;;;1.00;0.90;;;17.30;99.90;;;;;;5023632;28;20252;-77
2022/08/04 09:40:12;;;;;;;1.27;0.98;;;17.20;99.90;;;;;;5033439;28;20225;-76
2022/08/04 09:42:53;;;;;;;2.28;1.23;;;17.30;99.90;;;;;;5034579;28;20198;-74
2022/08/04 09:45:34;;;;;;;1.40;0.98;;;17.30;99.90;;;;;;5033893;28;20190;-75
2022/08/04 09:48:09;;;;;;;1.20;0.90;;;17.20;99.90;;;;;;5034346;28;20241;-78
2022/08/04 09:50:42;;;;;;;1.25;1.00;;;17.20;99.90;;;;;;5033895;28;20197;-80
2022/08/04 09:53:47;;;;;;;1.73;1.10;;;17.20;99.90;;;;;;5033956;28;20197;-76
2022/08/04 09:56:28;;;;;;;1.13;1.00;;;17.20;99.90;;;;;;5018167;28;20217;-78
2022/08/04 09:59:11;;;;;;;1.17;0.90;;;17.10;99.90;;;;;;5032366;28;20573;-78
2022/08/04 10:01:43;;;;;;;1.60;1.20;;;17.20;99.90;;;;;;5031847;28;20198;-75
2022/08/04 10:04:18;;;;;;;3.00;1.63;;;17.10;99.90;;;;;;5027718;28;20684;-75
2022/08/04 10:07:11;;;;;;;1.85;1.75;;;17.10;99.90;;;;;;5032620;28;20244;-76
2022/08/04 10:10:02;;;;;;;1.27;1.10;;;17.10;99.90;;;;;;5031747;28;20658;-80
2022/08/04 10:12:53;;;;;;;3.22;1.00;;;17.10;99.90;;;;;;5032749;28;20209;-80
2022/08/04 10:15:32;;;;;;;1.05;0.90;;;17.20;99.90;;;;;;5028889;28;20248;-79
2022/08/04 10:18:18;;;;;;;0.85;0.82;;;17.20;99.90;;;;;;5030869;28;20203;-78
2022/08/04 10:21:04;;;;;;;1.00;0.90;;;17.20;99.90;;;;;;5029980;28;20697;-79
2022/08/04 10:23:50;;;;;;;0.80;0.73;;;17.20;99.90;;;;;;5031100;28;20193;-80
2022/08/04 10:26:36;;;;;;;1.40;1.05;;;17.20;99.90;;;;;;5031917;28;20273;-81
2022/08/04 10:29:15;;;;;;;0.98;0.85;;;17.20;99.90;;;;;;5033172;28;20194;-79
2022/08/04 10:31:50;;;;;;;2.35;1.00;;;17.20;99.90;;;;;;5032173;28;20292;-80
2022/08/04 10:34:26;;;;;;;1.88;1.00;;;17.20;99.90;;;;;;5031506;28;20331;-79
2022/08/04 10:37:02;;;;;;;1.90;1.10;;;17.20;99.90;;;;;;5032872;28;20205;-79
2022/08/04 10:39:42;;;;;;;1.48;0.95;;;17.20;99.90;;;;;;5030712;28;20708;-80
2022/08/04 10:42:37;;;;;;;1.75;1.00;;;17.20;99.90;;;;;;5025756;28;20294;-79
2022/08/04 10:45:19;;;;;;;1.45;1.00;;;17.20;99.90;;;;;;5028680;28;20205;-79
2022/08/04 10:48:00;;;;;;;1.45;1.10;;;17.20;99.90;;;;;;5031207;28;20204;-78
2022/08/04 10:50:32;;;;;;;2.08;0.82;;;17.20;99.90;;;;;;5029867;28;20700;-79
2022/08/04 10:53:08;;;;;;;1.08;0.80;;;17.10;99.90;;;;;;5018309;28;20198;-78
2022/08/04 10:55:45;;;;;;;1.00;0.90;;;17.10;99.90;;;;;;5018491;28;20202;-78
2022/08/04 10:58:21;;;;;;;0.80;0.80;;;17.10;99.90;;;;;;5032064;28;20193;-79
2022/08/04 11:00:59;;;;;;;0.70;0.70;;;17.10;99.90;;;;;;5023662;28;20213;-78
2022/08/04 11:03:42;;;;;;;0.77;0.70;;;17.10;99.90;;;;;;5031042;28;20657;-78
2022/08/04 11:06:13;;;;;;;1.17;0.70;;;17.10;99.90;;;;;;5031586;28;20237;-79
2022/08/04 11:08:48;;;;;;;0.80;0.70;;;17.20;99.90;;;;;;5030531;28;20206;-76
2022/08/04 11:11:26;;;;;;;0.60;0.60;;;17.10;99.90;;;;;;5029615;28;20206;-76
2022/08/04 11:14:03;;;;;;;1.27;0.70;;;17.20;99.90;;;;;;5030789;28;20198;-76
2022/08/04 11:16:43;;;;;;;1.67;0.57;;;17.20;99.90;;;;;;5026944;28;20209;-76
2022/08/04 11:19:29;;;;;;;0.85;0.60;;;17.30;99.90;;;;;;5021997;28;20213;-76
2022/08/04 11:22:04;;;;;;;0.90;0.50;;;17.30;99.90;;;;;;5027885;28;20550;-75
2022/08/04 11:24:45;;;;;;;0.40;0.40;;;17.40;99.90;;;;;;5031232;28;20252;-78
2022/08/04 11:27:21;;;;;;;0.50;0.50;;;17.50;99.90;;;;;;5031313;28;20205;-79
2022/08/04 11:30:02;;;;;;;1.95;0.40;;;17.60;99.90;;;;;;5028008;28;20207;-78
2022/08/04 11:32:46;;;;;;;0.40;0.40;;;17.60;99.90;;;;;;5031026;28;20601;-77
2022/08/04 11:35:26;;;;;;;0.55;0.40;;;17.60;99.90;;;;;;5028821;28;20193;-80
2022/08/04 11:38:06;;;;;;;0.63;0.60;;;17.60;99.90;;;;;;5029885;28;20755;-78
2022/08/04 11:40:43;;;;;;;0.90;0.52;;;17.60;99.90;;;;;;5028396;28;20226;-78
2022/08/04 11:43:19;;;;;;;0.60;0.60;;;17.60;99.90;;;;;;5030646;28;20629;-77
2022/08/04 11:45:56;;;;;;;0.60;0.43;;;17.50;99.90;;;;;;5029635;28;20201;-79
2022/08/04 11:48:35;;;;;;;0.40;0.40;;;17.50;99.90;;;;;;5030384;28;20190;-79
2022/08/04 11:51:08;;;;;;;0.50;0.40;;;17.50;99.90;;;;;;5033616;28;20198;-77
2022/08/04 11:53:41;;;;;;;0.75;0.43;;;17.50;99.90;;;;;;5032560;28;20201;-77
2022/08/04 11:56:16;;;;;;;0.50;0.50;;;17.40;99.90;;;;;;5034448;28;20305;-78
2022/08/04 11:58:47;;;;;;;0.52;0.50;;;17.40;99.90;;;;;;5034473;28;20661;-78
2022/08/04 12:01:27;;;;;;;0.40;0.40;;;17.40;99.90;;;;;;5033456;28;20219;-78
2022/08/04 12:04:07;;;;;;;1.20;0.50;;;17.40;99.90;;;;;;5035302;28;20226;-78
2022/08/04 12:06:46;;;;;;;0.50;0.50;;;17.40;99.90;;;;;;5036229;28;20194;-77
2022/08/04 12:09:33;;;;;;;0.80;0.52;;;17.30;99.90;;;;;;5031756;28;20221;-79
2022/08/04 12:12:15;;;;;;;1.65;0.50;;;17.30;99.90;;;;;;5031410;28;20237;-78
2022/08/04 12:14:55;;;;;;;0.77;0.50;;;17.30;99.90;;;;;;5033520;28;20198;-76
2022/08/04 12:17:32;;;;;;;0.50;0.50;;;17.30;99.90;;;;;;5029880;28;20586;-78
2022/08/04 12:20:09;;;;;;;0.82;0.50;;;17.20;99.90;;;;;;5034485;28;20249;-77
2022/08/04 12:22:45;;;;;;;0.68;0.40;;;17.20;99.90;;;;;;5033114;28;20206;-79
2022/08/04 12:25:19;;;;;;;0.50;0.50;;;17.20;99.90;;;;;;5034074;28;20198;-78
2022/08/04 12:27:54;;;;;;;0.95;0.50;;;17.20;99.90;;;;;;5033864;28;20208;-78
2022/08/04 12:30:26;;;;;;;0.50;0.50;;;17.20;99.90;;;;;;5032235;28;20198;-79
2022/08/04 12:33:02;;;;;;;0.88;0.52;;;17.10;99.90;;;;;;5029913;28;20222;-78
2022/08/04 12:35:41;;;;;;;0.93;0.68;;;17.10;99.90;;;;;;5024300;28;20209;-77
2022/08/04 12:38:15;;;;;;;0.50;0.50;;;17.10;99.90;;;;;;5026471;28;20256;-77
2022/08/04 12:40:51;;;;;;;0.50;0.50;;;17.10;99.90;;;;;;5032673;28;20233;-77
2022/08/04 12:43:26;;;;;;;0.60;0.60;;;17.10;99.90;;;;;;5034845;28;20190;-78
2022/08/04 12:45:59;;;;;;;0.70;0.63;;;17.10;99.90;;;;;;5034953;28;20202;-77
2022/08/04 12:48:31;;;;;;;0.55;0.55;;;17.10;99.90;;;;;;5033526;28;20198;-78
2022/08/04 12:51:04;;;;;;;0.57;0.50;;;17.10;99.90;;;;;;5033448;28;20198;-77
2022/08/04 12:53:38;;;;;;;0.50;0.50;;;17.10;99.90;;;;;;5034215;28;21515;-78
2022/08/04 12:56:10;;;;;;;1.20;0.50;;;17.10;99.90;;;;;;5033288;28;20855;-77
2022/08/04 12:58:43;;;;;;;0.50;0.50;;;17.10;99.90;;;;;;5031883;28;20194;-78
2022/08/04 13:01:16;;;;;;;0.40;0.40;;;17.10;99.90;;;;;;5032139;28;20297;-79
2022/08/04 13:03:55;;;;;;;0.50;0.50;;;17.20;99.90;;;;;;5023079;28;20209;-76
2022/08/04 13:06:33;;;;;;;0.77;0.50;;;17.20;99.90;;;;;;5028769;28;20610;-78
2022/08/04 13:09:08;;;;;;;0.30;0.30;;;17.10;99.90;;;;;;5030973;28;20657;-78
2022/08/04 13:11:42;;;;;;;1.48;0.60;;;17.10;99.90;;;;;;5033930;28;20202;-78
2022/08/04 13:14:15;;;;;;;0.47;0.45;;;17.20;99.90;;;;;;5033836;28;20198;-76
2022/08/04 13:16:46;;;;;;;0.50;0.50;;;17.10;99.90;;;;;;5032118;28;20202;-78
2022/08/04 13:19:17;;;;;;;0.47;0.47;;;17.20;99.90;;;;;;5032447;28;20202;-77
2022/08/04 13:21:52;;;;;;;1.30;0.50;;;17.20;99.90;;;;;;5033397;28;20214;-78
2022/08/04 13:24:24;;;;;;;0.77;0.50;;;17.20;99.90;;;;;;5032378;28;20190;-77
2022/08/04 13:26:59;;;;;;;0.40;0.40;;;17.20;99.90;;;;;;5031174;28;20264;-78
2022/08/04 13:29:35;;;;;;;0.40;0.40;;;17.20;99.90;;;;;;5023132;28;20645;-77
2022/08/04 13:32:07;;;;;;;0.30;0.30;;;17.20;99.90;;;;;;5030868;28;20280;-78
2022/08/04 13:34:41;;;;;;;0.50;0.40;;;17.20;99.90;;;;;;5024725;28;20677;-77
2022/08/04 13:37:15;;;;;;;1.17;0.50;;;17.20;99.90;;;;;;5028366;28;20195;-76
2022/08/04 13:39:49;;;;;;;0.65;0.50;;;17.20;99.90;;;;;;5032515;28;20233;-78
2022/08/04 13:42:21;;;;;;;1.40;0.90;;;17.20;99.90;;;;;;5033058;28;20202;-78
2022/08/04 13:44:57;;;;;;;0.43;0.32;;;17.30;99.90;;;;;;5031117;28;20552;-77
2022/08/04 13:47:32;;;;;;;0.77;0.40;;;17.30;99.90;;;;;;5033846;28;20197;-78
2022/08/04 13:50:13;;;;;;;0.40;0.30;;;17.30;99.90;;;;;;5033314;28;20189;-78
2022/08/04 13:52:47;;;;;;;0.60;0.40;;;17.40;99.90;;;;;;5030578;28;20221;-77
2022/08/04 13:55:27;;;;;;;0.30;0.30;;;17.40;99.90;;;;;;5033644;28;20197;-78
2022/08/04 13:58:05;;;;;;;0.30;0.30;;;17.40;99.90;;;;;;5032300;28;20194;-78